sensor_id;sensor_type;location;lat;lon;timestamp;P1;durP1;ratioP1;P2;durP2;ratioP2
6095;SDS011;25081;42.698;23.298;2023-03-21T00:01:50;37.00;;;23.20;;
6095;SDS011;25081;42.698;23.298;2023-03-21T00:04:01;45.77;;;24.50;;
6095;SDS011;25081;42.698;23.298;2023-03-21T00:06:12;35.77;;;23.43;;
6095;SDS011;25081;42.698;23.298;2023-03-21T00:08:23;37.87;;;22.40;;
6095;SDS011;25081;42.698;23.298;2023-03-21T00:10:33;30.73;;;21.47;;
6095;SDS011;25081;42.698;23.298;2023-03-21T00:12:43;35.73;;;23.37;;
6095;SDS011;25081;42.698;23.298;2023-03-21T00:14:54;36.50;;;21.17;;
6095;SDS011;25081;42.698;23.298;2023-03-21T00:17:04;28.70;;;20.00;;
6095;SDS011;25081;42.698;23.298;2023-03-21T00:19:15;35.40;;;20.63;;
6095;SDS011;25081;42.698;23.298;2023-03-21T00:21:25;31.70;;;19.50;;
6095;SDS011;25081;42.698;23.298;2023-03-21T00:23:36;30.83;;;20.13;;
6095;SDS011;25081;42.698;23.298;2023-03-21T00:25:46;27.77;;;17.97;;
6095;SDS011;25081;42.698;23.298;2023-03-21T00:27:57;34.97;;;19.93;;
6095;SDS011;25081;42.698;23.298;2023-03-21T00:30:10;24.60;;;19.30;;
6095;SDS011;25081;42.698;23.298;2023-03-21T00:32:20;30.70;;;19.77;;
6095;SDS011;25081;42.698;23.298;2023-03-21T00:36:41;31.43;;;19.90;;
6095;SDS011;25081;42.698;23.298;2023-03-21T00:38:52;30.60;;;19.37;;
6095;SDS011;25081;42.698;23.298;2023-03-21T00:41:03;28.77;;;18.70;;
6095;SDS011;25081;42.698;23.298;2023-03-21T00:43:14;32.63;;;19.73;;
6095;SDS011;25081;42.698;23.298;2023-03-21T00:45:25;26.60;;;18.13;;
6095;SDS011;25081;42.698;23.298;2023-03-21T00:47:36;34.03;;;18.67;;
6095;SDS011;25081;42.698;23.298;2023-03-21T00:49:46;24.93;;;18.37;;
6095;SDS011;25081;42.698;23.298;2023-03-21T00:51:57;26.53;;;18.23;;
6095;SDS011;25081;42.698;23.298;2023-03-21T00:54:08;25.90;;;18.03;;
6095;SDS011;25081;42.698;23.298;2023-03-21T00:56:18;27.10;;;17.60;;
6095;SDS011;25081;42.698;23.298;2023-03-21T00:58:28;24.90;;;17.73;;
6095;SDS011;25081;42.698;23.298;2023-03-21T01:00:39;26.30;;;19.47;;
6095;SDS011;25081;42.698;23.298;2023-03-21T01:02:49;23.47;;;17.37;;
6095;SDS011;25081;42.698;23.298;2023-03-21T01:05:05;25.10;;;16.87;;
6095;SDS011;25081;42.698;23.298;2023-03-21T01:07:17;22.87;;;15.93;;
6095;SDS011;25081;42.698;23.298;2023-03-21T01:09:27;21.83;;;16.10;;
6095;SDS011;25081;42.698;23.298;2023-03-21T01:11:38;30.67;;;16.40;;
6095;SDS011;25081;42.698;23.298;2023-03-21T01:13:48;21.35;;;15.72;;
6095;SDS011;25081;42.698;23.298;2023-03-21T01:15:59;22.53;;;15.93;;
6095;SDS011;25081;42.698;23.298;2023-03-21T01:18:09;23.37;;;17.43;;
6095;SDS011;25081;42.698;23.298;2023-03-21T01:20:20;24.07;;;16.90;;
6095;SDS011;25081;42.698;23.298;2023-03-21T01:22:30;24.10;;;16.93;;
6095;SDS011;25081;42.698;23.298;2023-03-21T01:24:41;27.47;;;18.30;;
6095;SDS011;25081;42.698;23.298;2023-03-21T01:26:52;27.23;;;17.80;;
6095;SDS011;25081;42.698;23.298;2023-03-21T01:29:02;28.17;;;18.77;;
6095;SDS011;25081;42.698;23.298;2023-03-21T01:31:14;28.50;;;19.37;;
6095;SDS011;25081;42.698;23.298;2023-03-21T01:33:23;27.17;;;18.80;;
6095;SDS011;25081;42.698;23.298;2023-03-21T01:35:36;32.17;;;19.20;;
6095;SDS011;25081;42.698;23.298;2023-03-21T01:37:46;30.52;;;18.17;;
6095;SDS011;25081;42.698;23.298;2023-03-21T01:39:57;34.40;;;20.37;;
6095;SDS011;25081;42.698;23.298;2023-03-21T01:42:09;24.40;;;19.10;;
6095;SDS011;25081;42.698;23.298;2023-03-21T01:44:20;27.40;;;19.90;;
6095;SDS011;25081;42.698;23.298;2023-03-21T01:46:38;25.23;;;16.77;;
6095;SDS011;25081;42.698;23.298;2023-03-21T01:48:49;22.50;;;16.32;;
6095;SDS011;25081;42.698;23.298;2023-03-21T01:50:59;20.92;;;15.13;;
6095;SDS011;25081;42.698;23.298;2023-03-21T01:53:10;23.12;;;16.42;;
6095;SDS011;25081;42.698;23.298;2023-03-21T01:55:20;24.70;;;16.12;;
6095;SDS011;25081;42.698;23.298;2023-03-21T01:57:31;25.73;;;17.53;;
6095;SDS011;25081;42.698;23.298;2023-03-21T01:59:43;21.52;;;16.23;;
6095;SDS011;25081;42.698;23.298;2023-03-21T02:01:52;24.40;;;17.53;;
6095;SDS011;25081;42.698;23.298;2023-03-21T02:04:03;24.47;;;17.15;;
6095;SDS011;25081;42.698;23.298;2023-03-21T02:06:13;23.67;;;15.87;;
6095;SDS011;25081;42.698;23.298;2023-03-21T02:08:24;23.37;;;17.43;;
6095;SDS011;25081;42.698;23.298;2023-03-21T02:10:34;25.83;;;17.40;;
6095;SDS011;25081;42.698;23.298;2023-03-21T02:12:45;28.87;;;16.57;;
6095;SDS011;25081;42.698;23.298;2023-03-21T02:14:55;25.07;;;17.83;;
6095;SDS011;25081;42.698;23.298;2023-03-21T02:17:09;24.10;;;16.57;;
6095;SDS011;25081;42.698;23.298;2023-03-21T02:19:26;23.70;;;17.05;;
6095;SDS011;25081;42.698;23.298;2023-03-21T02:24:37;26.17;;;16.63;;
6095;SDS011;25081;42.698;23.298;2023-03-21T02:27:06;21.48;;;15.00;;
6095;SDS011;25081;42.698;23.298;2023-03-21T02:32:10;20.48;;;14.93;;
6095;SDS011;25081;42.698;23.298;2023-03-21T02:34:33;23.27;;;15.40;;
6095;SDS011;25081;42.698;23.298;2023-03-21T02:36:55;24.52;;;14.98;;
6095;SDS011;25081;42.698;23.298;2023-03-21T02:39:09;18.12;;;13.85;;
6095;SDS011;25081;42.698;23.298;2023-03-21T02:41:23;21.12;;;14.85;;
6095;SDS011;25081;42.698;23.298;2023-03-21T02:43:33;20.65;;;15.00;;
6095;SDS011;25081;42.698;23.298;2023-03-21T02:45:44;24.07;;;14.98;;
6095;SDS011;25081;42.698;23.298;2023-03-21T02:47:55;19.75;;;15.18;;
6095;SDS011;25081;42.698;23.298;2023-03-21T02:50:06;20.05;;;14.15;;
6095;SDS011;25081;42.698;23.298;2023-03-21T02:52:18;18.48;;;13.53;;
6095;SDS011;25081;42.698;23.298;2023-03-21T02:54:28;21.17;;;14.40;;
6095;SDS011;25081;42.698;23.298;2023-03-21T02:56:38;22.02;;;13.65;;
6095;SDS011;25081;42.698;23.298;2023-03-21T02:58:49;25.37;;;13.78;;
6095;SDS011;25081;42.698;23.298;2023-03-21T03:00:59;24.52;;;15.88;;
6095;SDS011;25081;42.698;23.298;2023-03-21T03:03:10;21.42;;;14.30;;
6095;SDS011;25081;42.698;23.298;2023-03-21T03:05:22;21.93;;;13.90;;
6095;SDS011;25081;42.698;23.298;2023-03-21T03:07:33;21.23;;;13.35;;
6095;SDS011;25081;42.698;23.298;2023-03-21T03:09:50;22.70;;;15.05;;
6095;SDS011;25081;42.698;23.298;2023-03-21T03:12:06;27.82;;;15.70;;
6095;SDS011;25081;42.698;23.298;2023-03-21T03:14:20;20.70;;;14.13;;
6095;SDS011;25081;42.698;23.298;2023-03-21T03:16:38;29.80;;;15.50;;
6095;SDS011;25081;42.698;23.298;2023-03-21T03:18:49;28.70;;;15.03;;
6095;SDS011;25081;42.698;23.298;2023-03-21T03:21:01;27.42;;;15.78;;
6095;SDS011;25081;42.698;23.298;2023-03-21T03:23:14;37.05;;;15.75;;
6095;SDS011;25081;42.698;23.298;2023-03-21T03:25:27;36.23;;;16.45;;
6095;SDS011;25081;42.698;23.298;2023-03-21T03:27:38;24.55;;;15.72;;
6095;SDS011;25081;42.698;23.298;2023-03-21T03:29:48;32.15;;;15.45;;
6095;SDS011;25081;42.698;23.298;2023-03-21T03:31:59;24.55;;;14.60;;
6095;SDS011;25081;42.698;23.298;2023-03-21T03:34:10;22.30;;;14.60;;
6095;SDS011;25081;42.698;23.298;2023-03-21T03:36:20;25.25;;;15.00;;
6095;SDS011;25081;42.698;23.298;2023-03-21T03:38:30;35.17;;;14.68;;
6095;SDS011;25081;42.698;23.298;2023-03-21T03:40:43;31.27;;;15.80;;
6095;SDS011;25081;42.698;23.298;2023-03-21T03:42:52;23.45;;;15.13;;
6095;SDS011;25081;42.698;23.298;2023-03-21T03:45:02;29.05;;;14.80;;
6095;SDS011;25081;42.698;23.298;2023-03-21T03:47:16;27.13;;;15.50;;
6095;SDS011;25081;42.698;23.298;2023-03-21T03:49:28;29.15;;;16.48;;
6095;SDS011;25081;42.698;23.298;2023-03-21T03:51:38;23.90;;;15.90;;
6095;SDS011;25081;42.698;23.298;2023-03-21T03:53:50;27.85;;;17.20;;
6095;SDS011;25081;42.698;23.298;2023-03-21T03:56:00;25.25;;;17.02;;
6095;SDS011;25081;42.698;23.298;2023-03-21T03:58:10;23.80;;;15.93;;
6095;SDS011;25081;42.698;23.298;2023-03-21T04:00:21;23.32;;;16.12;;
6095;SDS011;25081;42.698;23.298;2023-03-21T04:02:31;26.45;;;16.23;;
6095;SDS011;25081;42.698;23.298;2023-03-21T04:04:42;30.40;;;16.00;;
6095;SDS011;25081;42.698;23.298;2023-03-21T04:06:52;26.17;;;14.95;;
6095;SDS011;25081;42.698;23.298;2023-03-21T04:09:03;24.47;;;14.23;;
6095;SDS011;25081;42.698;23.298;2023-03-21T04:11:14;22.10;;;13.45;;
6095;SDS011;25081;42.698;23.298;2023-03-21T04:13:24;32.05;;;13.85;;
6095;SDS011;25081;42.698;23.298;2023-03-21T04:15:35;21.20;;;13.28;;
6095;SDS011;25081;42.698;23.298;2023-03-21T04:17:45;19.80;;;13.15;;
6095;SDS011;25081;42.698;23.298;2023-03-21T04:19:56;36.83;;;25.20;;
6095;SDS011;25081;42.698;23.298;2023-03-21T04:22:07;44.03;;;32.50;;
6095;SDS011;25081;42.698;23.298;2023-03-21T04:24:17;20.60;;;12.58;;
6095;SDS011;25081;42.698;23.298;2023-03-21T04:26:28;17.87;;;12.20;;
6095;SDS011;25081;42.698;23.298;2023-03-21T04:28:38;23.70;;;12.50;;
6095;SDS011;25081;42.698;23.298;2023-03-21T04:30:49;22.60;;;12.45;;
6095;SDS011;25081;42.698;23.298;2023-03-21T04:32:59;22.50;;;16.42;;
6095;SDS011;25081;42.698;23.298;2023-03-21T04:35:10;30.50;;;13.90;;
6095;SDS011;25081;42.698;23.298;2023-03-21T04:37:20;25.15;;;13.38;;
6095;SDS011;25081;42.698;23.298;2023-03-21T04:39:31;22.90;;;13.25;;
6095;SDS011;25081;42.698;23.298;2023-03-21T04:41:42;26.97;;;14.00;;
6095;SDS011;25081;42.698;23.298;2023-03-21T04:43:52;25.77;;;14.68;;
6095;SDS011;25081;42.698;23.298;2023-03-21T04:46:02;42.40;;;16.35;;
6095;SDS011;25081;42.698;23.298;2023-03-21T04:48:13;41.50;;;16.17;;
6095;SDS011;25081;42.698;23.298;2023-03-21T04:50:24;39.53;;;18.15;;
6095;SDS011;25081;42.698;23.298;2023-03-21T04:52:34;32.88;;;16.37;;
6095;SDS011;25081;42.698;23.298;2023-03-21T04:54:45;44.45;;;17.70;;
6095;SDS011;25081;42.698;23.298;2023-03-21T04:56:55;36.30;;;18.02;;
6095;SDS011;25081;42.698;23.298;2023-03-21T04:59:07;54.73;;;19.87;;
6095;SDS011;25081;42.698;23.298;2023-03-21T05:01:16;49.27;;;20.88;;
6095;SDS011;25081;42.698;23.298;2023-03-21T05:03:27;46.05;;;20.80;;
6095;SDS011;25081;42.698;23.298;2023-03-21T05:05:37;53.90;;;19.30;;
6095;SDS011;25081;42.698;23.298;2023-03-21T05:07:48;67.78;;;21.27;;
6095;SDS011;25081;42.698;23.298;2023-03-21T05:09:58;37.20;;;16.97;;
6095;SDS011;25081;42.698;23.298;2023-03-21T05:12:09;31.55;;;14.87;;
6095;SDS011;25081;42.698;23.298;2023-03-21T05:14:20;36.75;;;14.45;;
6095;SDS011;25081;42.698;23.298;2023-03-21T05:16:30;24.23;;;13.85;;
6095;SDS011;25081;42.698;23.298;2023-03-21T05:18:40;33.80;;;16.02;;
6095;SDS011;25081;42.698;23.298;2023-03-21T05:20:51;20.27;;;12.70;;
6095;SDS011;25081;42.698;23.298;2023-03-21T05:23:02;28.98;;;13.35;;
6095;SDS011;25081;42.698;23.298;2023-03-21T05:25:12;23.57;;;11.85;;
6095;SDS011;25081;42.698;23.298;2023-03-21T05:27:22;22.55;;;11.95;;
6095;SDS011;25081;42.698;23.298;2023-03-21T05:29:42;28.12;;;12.07;;
6095;SDS011;25081;42.698;23.298;2023-03-21T05:31:53;35.75;;;19.05;;
6095;SDS011;25081;42.698;23.298;2023-03-21T05:34:03;35.45;;;20.52;;
6095;SDS011;25081;42.698;23.298;2023-03-21T05:36:14;36.80;;;19.35;;
6095;SDS011;25081;42.698;23.298;2023-03-21T05:38:24;36.00;;;20.30;;
6095;SDS011;25081;42.698;23.298;2023-03-21T05:40:35;26.40;;;17.23;;
6095;SDS011;25081;42.698;23.298;2023-03-21T05:42:45;29.18;;;14.87;;
6095;SDS011;25081;42.698;23.298;2023-03-21T05:44:56;34.00;;;15.32;;
6095;SDS011;25081;42.698;23.298;2023-03-21T05:47:06;29.80;;;15.90;;
6095;SDS011;25081;42.698;23.298;2023-03-21T05:49:17;25.37;;;14.07;;
6095;SDS011;25081;42.698;23.298;2023-03-21T05:51:28;19.35;;;13.15;;
6095;SDS011;25081;42.698;23.298;2023-03-21T05:53:38;27.55;;;13.45;;
6095;SDS011;25081;42.698;23.298;2023-03-21T05:55:49;28.40;;;14.10;;
6095;SDS011;25081;42.698;23.298;2023-03-21T05:57:59;29.65;;;13.83;;
6095;SDS011;25081;42.698;23.298;2023-03-21T06:00:11;26.77;;;14.93;;
6095;SDS011;25081;42.698;23.298;2023-03-21T06:02:22;31.90;;;14.40;;
6095;SDS011;25081;42.698;23.298;2023-03-21T06:04:33;33.10;;;14.77;;
6095;SDS011;25081;42.698;23.298;2023-03-21T06:06:43;27.70;;;13.57;;
6095;SDS011;25081;42.698;23.298;2023-03-21T06:08:54;28.43;;;14.40;;
6095;SDS011;25081;42.698;23.298;2023-03-21T06:11:05;26.67;;;13.20;;
6095;SDS011;25081;42.698;23.298;2023-03-21T06:13:16;33.20;;;13.30;;
6095;SDS011;25081;42.698;23.298;2023-03-21T06:15:26;26.10;;;13.33;;
6095;SDS011;25081;42.698;23.298;2023-03-21T06:17:37;26.20;;;14.90;;
6095;SDS011;25081;42.698;23.298;2023-03-21T06:19:47;34.93;;;14.30;;
6095;SDS011;25081;42.698;23.298;2023-03-21T06:21:58;30.43;;;15.60;;
6095;SDS011;25081;42.698;23.298;2023-03-21T06:24:08;28.93;;;15.33;;
6095;SDS011;25081;42.698;23.298;2023-03-21T06:26:19;30.77;;;15.07;;
6095;SDS011;25081;42.698;23.298;2023-03-21T06:28:29;27.43;;;15.90;;
6095;SDS011;25081;42.698;23.298;2023-03-21T06:30:40;32.90;;;15.90;;
6095;SDS011;25081;42.698;23.298;2023-03-21T06:32:51;33.60;;;15.43;;
6095;SDS011;25081;42.698;23.298;2023-03-21T06:35:02;28.97;;;16.27;;
6095;SDS011;25081;42.698;23.298;2023-03-21T06:37:13;35.97;;;16.57;;
6095;SDS011;25081;42.698;23.298;2023-03-21T06:39:23;51.93;;;18.23;;
6095;SDS011;25081;42.698;23.298;2023-03-21T06:41:34;30.33;;;17.80;;
6095;SDS011;25081;42.698;23.298;2023-03-21T06:43:44;28.73;;;18.57;;
6095;SDS011;25081;42.698;23.298;2023-03-21T06:45:55;33.80;;;17.37;;
6095;SDS011;25081;42.698;23.298;2023-03-21T06:48:06;52.60;;;20.30;;
6095;SDS011;25081;42.698;23.298;2023-03-21T06:50:16;35.30;;;18.30;;
6095;SDS011;25081;42.698;23.298;2023-03-21T06:52:27;57.33;;;19.13;;
6095;SDS011;25081;42.698;23.298;2023-03-21T06:54:38;30.00;;;18.00;;
6095;SDS011;25081;42.698;23.298;2023-03-21T06:56:49;34.97;;;20.07;;
6095;SDS011;25081;42.698;23.298;2023-03-21T06:58:59;35.03;;;19.63;;
6095;SDS011;25081;42.698;23.298;2023-03-21T07:01:10;40.73;;;20.20;;
6095;SDS011;25081;42.698;23.298;2023-03-21T07:03:20;26.00;;;18.90;;
6095;SDS011;25081;42.698;23.298;2023-03-21T07:05:31;31.03;;;19.87;;
6095;SDS011;25081;42.698;23.298;2023-03-21T07:07:42;33.13;;;18.30;;
6095;SDS011;25081;42.698;23.298;2023-03-21T07:09:52;27.03;;;16.40;;
6095;SDS011;25081;42.698;23.298;2023-03-21T07:12:03;30.00;;;15.97;;
6095;SDS011;25081;42.698;23.298;2023-03-21T07:14:14;29.33;;;14.47;;
6095;SDS011;25081;42.698;23.298;2023-03-21T07:16:24;24.70;;;14.87;;
6095;SDS011;25081;42.698;23.298;2023-03-21T07:18:35;23.73;;;15.13;;
6095;SDS011;25081;42.698;23.298;2023-03-21T07:20:46;21.70;;;15.40;;
6095;SDS011;25081;42.698;23.298;2023-03-21T07:22:57;23.60;;;14.63;;
6095;SDS011;25081;42.698;23.298;2023-03-21T07:25:11;24.97;;;15.67;;
6095;SDS011;25081;42.698;23.298;2023-03-21T07:27:22;24.60;;;16.17;;
6095;SDS011;25081;42.698;23.298;2023-03-21T07:29:33;25.17;;;16.27;;
6095;SDS011;25081;42.698;23.298;2023-03-21T07:31:43;39.30;;;17.67;;
6095;SDS011;25081;42.698;23.298;2023-03-21T07:33:54;21.90;;;16.77;;
6095;SDS011;25081;42.698;23.298;2023-03-21T07:36:08;24.20;;;15.33;;
6095;SDS011;25081;42.698;23.298;2023-03-21T07:38:18;31.97;;;15.83;;
6095;SDS011;25081;42.698;23.298;2023-03-21T07:40:29;30.50;;;15.60;;
6095;SDS011;25081;42.698;23.298;2023-03-21T07:42:39;31.30;;;14.80;;
6095;SDS011;25081;42.698;23.298;2023-03-21T07:44:50;30.40;;;15.43;;
6095;SDS011;25081;42.698;23.298;2023-03-21T07:47:00;23.03;;;16.20;;
6095;SDS011;25081;42.698;23.298;2023-03-21T07:49:11;24.27;;;15.13;;
6095;SDS011;25081;42.698;23.298;2023-03-21T07:51:21;24.67;;;15.03;;
6095;SDS011;25081;42.698;23.298;2023-03-21T07:53:32;24.07;;;14.13;;
6095;SDS011;25081;42.698;23.298;2023-03-21T07:55:42;21.73;;;13.90;;
6095;SDS011;25081;42.698;23.298;2023-03-21T07:57:53;27.63;;;13.90;;
6095;SDS011;25081;42.698;23.298;2023-03-21T08:00:04;17.80;;;12.20;;
6095;SDS011;25081;42.698;23.298;2023-03-21T08:02:16;25.57;;;12.80;;
6095;SDS011;25081;42.698;23.298;2023-03-21T08:04:27;29.97;;;12.33;;
6095;SDS011;25081;42.698;23.298;2023-03-21T08:06:37;17.57;;;11.27;;
6095;SDS011;25081;42.698;23.298;2023-03-21T08:08:48;21.37;;;11.53;;
6095;SDS011;25081;42.698;23.298;2023-03-21T08:10:58;18.37;;;11.60;;
6095;SDS011;25081;42.698;23.298;2023-03-21T08:13:09;18.67;;;10.80;;
6095;SDS011;25081;42.698;23.298;2023-03-21T08:15:20;23.07;;;11.33;;
6095;SDS011;25081;42.698;23.298;2023-03-21T08:17:30;20.97;;;11.10;;
6095;SDS011;25081;42.698;23.298;2023-03-21T08:19:41;19.50;;;12.10;;
6095;SDS011;25081;42.698;23.298;2023-03-21T08:21:52;19.10;;;11.60;;
6095;SDS011;25081;42.698;23.298;2023-03-21T08:24:02;23.63;;;12.23;;
6095;SDS011;25081;42.698;23.298;2023-03-21T08:26:16;20.83;;;11.07;;
6095;SDS011;25081;42.698;23.298;2023-03-21T08:28:26;21.07;;;11.90;;
6095;SDS011;25081;42.698;23.298;2023-03-21T08:30:37;28.03;;;13.07;;
6095;SDS011;25081;42.698;23.298;2023-03-21T08:32:47;20.50;;;12.00;;
6095;SDS011;25081;42.698;23.298;2023-03-21T08:34:58;18.93;;;13.27;;
6095;SDS011;25081;42.698;23.298;2023-03-21T08:37:08;18.13;;;13.50;;
6095;SDS011;25081;42.698;23.298;2023-03-21T08:39:19;33.47;;;13.67;;
6095;SDS011;25081;42.698;23.298;2023-03-21T08:41:29;18.20;;;11.90;;
6095;SDS011;25081;42.698;23.298;2023-03-21T08:43:40;20.80;;;13.20;;
6095;SDS011;25081;42.698;23.298;2023-03-21T08:45:52;20.67;;;12.97;;
6095;SDS011;25081;42.698;23.298;2023-03-21T08:48:06;22.53;;;12.03;;
6095;SDS011;25081;42.698;23.298;2023-03-21T08:50:17;18.10;;;12.50;;
6095;SDS011;25081;42.698;23.298;2023-03-21T08:52:28;14.63;;;11.50;;
6095;SDS011;25081;42.698;23.298;2023-03-21T08:54:38;24.83;;;12.73;;
6095;SDS011;25081;42.698;23.298;2023-03-21T08:56:49;16.37;;;12.70;;
6095;SDS011;25081;42.698;23.298;2023-03-21T08:58:59;19.33;;;11.70;;
6095;SDS011;25081;42.698;23.298;2023-03-21T09:01:12;20.47;;;12.63;;
6095;SDS011;25081;42.698;23.298;2023-03-21T09:03:22;20.57;;;13.30;;
6095;SDS011;25081;42.698;23.298;2023-03-21T09:05:33;20.43;;;15.23;;
6095;SDS011;25081;42.698;23.298;2023-03-21T09:07:44;14.87;;;11.33;;
6095;SDS011;25081;42.698;23.298;2023-03-21T09:09:54;16.43;;;12.57;;
6095;SDS011;25081;42.698;23.298;2023-03-21T09:12:05;16.50;;;12.30;;
6095;SDS011;25081;42.698;23.298;2023-03-21T09:14:17;17.73;;;12.73;;
6095;SDS011;25081;42.698;23.298;2023-03-21T09:16:27;23.13;;;12.37;;
6095;SDS011;25081;42.698;23.298;2023-03-21T09:18:38;20.80;;;11.90;;
6095;SDS011;25081;42.698;23.298;2023-03-21T09:20:54;20.00;;;11.50;;
6095;SDS011;25081;42.698;23.298;2023-03-21T09:23:05;17.47;;;12.50;;
6095;SDS011;25081;42.698;23.298;2023-03-21T09:25:16;19.80;;;11.80;;
6095;SDS011;25081;42.698;23.298;2023-03-21T09:27:26;24.47;;;12.20;;
6095;SDS011;25081;42.698;23.298;2023-03-21T09:29:37;23.20;;;12.27;;
6095;SDS011;25081;42.698;23.298;2023-03-21T09:31:47;17.77;;;11.40;;
6095;SDS011;25081;42.698;23.298;2023-03-21T09:33:58;19.90;;;13.23;;
6095;SDS011;25081;42.698;23.298;2023-03-21T09:36:10;17.90;;;12.10;;
6095;SDS011;25081;42.698;23.298;2023-03-21T09:38:20;19.10;;;11.10;;
6095;SDS011;25081;42.698;23.298;2023-03-21T09:40:38;18.40;;;12.50;;
6095;SDS011;25081;42.698;23.298;2023-03-21T09:42:53;20.70;;;12.40;;
6095;SDS011;25081;42.698;23.298;2023-03-21T09:45:08;19.43;;;12.47;;
6095;SDS011;25081;42.698;23.298;2023-03-21T09:47:20;16.40;;;12.00;;
6095;SDS011;25081;42.698;23.298;2023-03-21T09:49:30;14.33;;;11.17;;
6095;SDS011;25081;42.698;23.298;2023-03-21T09:51:42;23.70;;;12.23;;
6095;SDS011;25081;42.698;23.298;2023-03-21T09:53:51;22.63;;;12.40;;
6095;SDS011;25081;42.698;23.298;2023-03-21T09:56:02;21.50;;;13.43;;
6095;SDS011;25081;42.698;23.298;2023-03-21T09:58:14;19.53;;;11.90;;
6095;SDS011;25081;42.698;23.298;2023-03-21T10:00:26;17.00;;;12.40;;
6095;SDS011;25081;42.698;23.298;2023-03-21T10:02:37;20.60;;;12.70;;
6095;SDS011;25081;42.698;23.298;2023-03-21T10:04:48;17.73;;;12.50;;
6095;SDS011;25081;42.698;23.298;2023-03-21T10:06:59;14.93;;;12.73;;
6095;SDS011;25081;42.698;23.298;2023-03-21T10:09:12;19.03;;;13.00;;
6095;SDS011;25081;42.698;23.298;2023-03-21T10:11:22;19.47;;;11.33;;
6095;SDS011;25081;42.698;23.298;2023-03-21T10:13:34;15.50;;;13.10;;
6095;SDS011;25081;42.698;23.298;2023-03-21T10:15:44;15.63;;;12.83;;
6095;SDS011;25081;42.698;23.298;2023-03-21T10:17:56;16.37;;;11.70;;
6095;SDS011;25081;42.698;23.298;2023-03-21T10:20:10;18.80;;;11.53;;
6095;SDS011;25081;42.698;23.298;2023-03-21T10:22:21;18.67;;;13.53;;
6095;SDS011;25081;42.698;23.298;2023-03-21T10:24:32;23.40;;;13.80;;
6095;SDS011;25081;42.698;23.298;2023-03-21T10:26:43;19.90;;;14.10;;
6095;SDS011;25081;42.698;23.298;2023-03-21T10:28:54;19.33;;;14.27;;
6095;SDS011;25081;42.698;23.298;2023-03-21T10:31:05;23.33;;;14.03;;
6095;SDS011;25081;42.698;23.298;2023-03-21T10:33:16;21.90;;;12.93;;
6095;SDS011;25081;42.698;23.298;2023-03-21T10:35:26;14.10;;;12.70;;
6095;SDS011;25081;42.698;23.298;2023-03-21T10:37:36;17.93;;;13.07;;
6095;SDS011;25081;42.698;23.298;2023-03-21T10:39:47;15.67;;;11.63;;
6095;SDS011;25081;42.698;23.298;2023-03-21T10:41:58;17.53;;;11.63;;
6095;SDS011;25081;42.698;23.298;2023-03-21T10:44:09;17.40;;;11.60;;
6095;SDS011;25081;42.698;23.298;2023-03-21T10:46:19;19.47;;;12.20;;
6095;SDS011;25081;42.698;23.298;2023-03-21T10:48:31;16.10;;;12.37;;
6095;SDS011;25081;42.698;23.298;2023-03-21T10:50:41;15.40;;;11.63;;
6095;SDS011;25081;42.698;23.298;2023-03-21T10:52:54;16.27;;;10.23;;
6095;SDS011;25081;42.698;23.298;2023-03-21T10:55:07;12.00;;;9.27;;
6095;SDS011;25081;42.698;23.298;2023-03-21T10:57:20;18.67;;;10.93;;
6095;SDS011;25081;42.698;23.298;2023-03-21T10:59:34;13.90;;;10.03;;
6095;SDS011;25081;42.698;23.298;2023-03-21T11:01:44;16.47;;;11.30;;
6095;SDS011;25081;42.698;23.298;2023-03-21T11:03:54;13.87;;;10.30;;
6095;SDS011;25081;42.698;23.298;2023-03-21T11:06:07;13.57;;;9.27;;
6095;SDS011;25081;42.698;23.298;2023-03-21T11:08:17;15.40;;;10.40;;
6095;SDS011;25081;42.698;23.298;2023-03-21T11:10:29;11.80;;;9.10;;
6095;SDS011;25081;42.698;23.298;2023-03-21T11:12:40;10.43;;;7.90;;
6095;SDS011;25081;42.698;23.298;2023-03-21T11:14:50;8.50;;;7.40;;
6095;SDS011;25081;42.698;23.298;2023-03-21T11:17:00;9.57;;;7.93;;
6095;SDS011;25081;42.698;23.298;2023-03-21T11:19:15;10.60;;;8.47;;
6095;SDS011;25081;42.698;23.298;2023-03-21T11:21:24;10.30;;;8.77;;
6095;SDS011;25081;42.698;23.298;2023-03-21T11:23:36;13.13;;;7.60;;
6095;SDS011;25081;42.698;23.298;2023-03-21T11:25:48;13.77;;;7.97;;
6095;SDS011;25081;42.698;23.298;2023-03-21T11:27:58;13.33;;;7.50;;
6095;SDS011;25081;42.698;23.298;2023-03-21T11:30:17;9.73;;;8.10;;
6095;SDS011;25081;42.698;23.298;2023-03-21T11:32:31;14.20;;;7.53;;
6095;SDS011;25081;42.698;23.298;2023-03-21T11:34:43;10.03;;;7.40;;
6095;SDS011;25081;42.698;23.298;2023-03-21T11:36:56;12.43;;;8.50;;
6095;SDS011;25081;42.698;23.298;2023-03-21T11:39:28;13.07;;;7.90;;
6095;SDS011;25081;42.698;23.298;2023-03-21T11:41:28;10.93;;;7.47;;
6095;SDS011;25081;42.698;23.298;2023-03-21T11:43:38;14.17;;;7.90;;
6095;SDS011;25081;42.698;23.298;2023-03-21T11:45:55;14.20;;;7.70;;
6095;SDS011;25081;42.698;23.298;2023-03-21T11:48:10;15.00;;;7.93;;
6095;SDS011;25081;42.698;23.298;2023-03-21T11:50:22;13.00;;;6.63;;
6095;SDS011;25081;42.698;23.298;2023-03-21T11:52:36;13.23;;;6.07;;
6095;SDS011;25081;42.698;23.298;2023-03-21T11:54:53;14.33;;;7.60;;
6095;SDS011;25081;42.698;23.298;2023-03-21T11:57:22;12.13;;;7.53;;
6095;SDS011;25081;42.698;23.298;2023-03-21T11:59:34;8.77;;;7.07;;
6095;SDS011;25081;42.698;23.298;2023-03-21T12:01:50;11.80;;;6.50;;
6095;SDS011;25081;42.698;23.298;2023-03-21T12:04:11;10.07;;;6.60;;
6095;SDS011;25081;42.698;23.298;2023-03-21T12:06:25;11.67;;;6.90;;
6095;SDS011;25081;42.698;23.298;2023-03-21T12:08:38;11.70;;;6.27;;
6095;SDS011;25081;42.698;23.298;2023-03-21T12:10:49;6.80;;;5.73;;
6095;SDS011;25081;42.698;23.298;2023-03-21T12:13:02;11.20;;;6.23;;
6095;SDS011;25081;42.698;23.298;2023-03-21T12:15:15;8.67;;;5.70;;
6095;SDS011;25081;42.698;23.298;2023-03-21T12:17:29;10.37;;;6.60;;
6095;SDS011;25081;42.698;23.298;2023-03-21T12:19:47;16.00;;;7.70;;
6095;SDS011;25081;42.698;23.298;2023-03-21T12:22:18;7.10;;;5.83;;
6095;SDS011;25081;42.698;23.298;2023-03-21T12:24:30;10.60;;;6.03;;
6095;SDS011;25081;42.698;23.298;2023-03-21T12:26:42;6.53;;;5.10;;
6095;SDS011;25081;42.698;23.298;2023-03-21T12:29:06;10.57;;;6.30;;
6095;SDS011;25081;42.698;23.298;2023-03-21T12:31:24;8.73;;;6.27;;
6095;SDS011;25081;42.698;23.298;2023-03-21T12:33:51;12.03;;;6.20;;
6095;SDS011;25081;42.698;23.298;2023-03-21T12:36:09;11.97;;;6.10;;
6095;SDS011;25081;42.698;23.298;2023-03-21T12:38:22;8.17;;;6.20;;
6095;SDS011;25081;42.698;23.298;2023-03-21T12:40:37;8.10;;;5.80;;
6095;SDS011;25081;42.698;23.298;2023-03-21T12:42:52;7.87;;;6.50;;
6095;SDS011;25081;42.698;23.298;2023-03-21T12:45:08;10.20;;;5.63;;
6095;SDS011;25081;42.698;23.298;2023-03-21T12:47:20;10.53;;;6.33;;
6095;SDS011;25081;42.698;23.298;2023-03-21T12:49:30;7.30;;;5.77;;
6095;SDS011;25081;42.698;23.298;2023-03-21T12:51:42;9.30;;;7.30;;
6095;SDS011;25081;42.698;23.298;2023-03-21T12:53:53;10.57;;;6.50;;
6095;SDS011;25081;42.698;23.298;2023-03-21T12:56:06;10.67;;;6.53;;
6095;SDS011;25081;42.698;23.298;2023-03-21T12:58:18;9.63;;;6.50;;
6095;SDS011;25081;42.698;23.298;2023-03-21T13:00:29;8.67;;;6.57;;